Hrossey — VSTY6 — position and weather

sailwx.info

Track history (hours):
 
Tides and Currents Weather Stations Pressure Air Temp Water Temp Dewpoint Dewpoint Depression Visibility Wind Speed Wind Dir Waves Ship Positions

Hrossey

Operator: NorthLink Orkey & Shetland Ferries Ltd

Last reported at 2019-Nov-20 08:28 UTC. Time now 2019-Nov-20 10:13 UTC.
Position N 57°09' W 002°05'.

Length 125 m; draft 5.4 m.

Type: Ship. MMSI: 235448000.

Date/timePositionNaut miles runAvg speedWind from/ knotsBaromVisibWave heightAir tempDewpointWater temp
2019-Nov-20 08:28N 57°09' W 002°05'0 0.0
2019-Nov-20 07:28N 57°09' W 002°05'1 0.5
2019-Nov-20 06:30N 57°09' W 002°05'2914.5
2019-Nov-20 04:30N 57°33' W 001°36'1 0.0
2019-Nov-18 20:30N 57°32' W 001°38'1518.8
2019-Nov-18 19:42N 57°18' W 001°50'419.3
2019-Nov-18 19:30N 57°16' W 001°54'9 2.6
2019-Nov-18 15:59N 57°09' W 002°05'0 0.0
2019-Nov-18 15:29N 57°09' W 002°05'0 0.0
2019-Nov-18 12:59N 57°09' W 002°05'0 0.0
2019-Nov-18 12:29N 57°09' W 002°05'0 0.0
2019-Nov-18 10:59N 57°09' W 002°05'0 0.0
2019-Nov-18 09:29N 57°09' W 002°05'27 5.7
2019-Nov-18 04:47N 57°31' W 001°37'97 3.5
2019-Nov-17 01:03N 59°04' W 002°28'8813.4
2019-Nov-16 18:27N 57°38' W 001°45'2222.9
2019-Nov-16 17:30N 57°17' W 001°52'1020.9
2019-Nov-16 17:00N 57°09' W 002°04'1 1.0
2019-Nov-16 15:58N 57°09' W 002°05'0 0.0
2019-Nov-16 15:28N 57°09' W 002°05'0 0.0
2019-Nov-16 07:28N 57°09' W 002°05'1 0.6
2019-Nov-16 06:30N 57°09' W 002°04'11514.4
2019-Nov-15 22:30N 58°60' W 002°58'0 0.0
2019-Nov-15 00:00N 58°60' W 002°58'3 2.1
2019-Nov-14 22:30N 59°01' W 002°52'9121.8
2019-Nov-14 18:20N 57°37' W 001°43'823.3
2019-Nov-14 18:00N 57°30' W 001°41'1223.3
2019-Nov-14 17:30N 57°19' W 001°50'13 1.9
2019-Nov-14 10:30N 57°09' W 002°05'1 0.2
2019-Nov-14 06:31N 57°08' W 002°04'11516.4
2019-Nov-13 23:30N 58°60' W 002°58'9 4.7
2019-Nov-13 21:30N 59°00' W 002°40'113 4.1
2019-Nov-12 17:59N 57°09' W 002°05'0 0.0
2019-Nov-12 15:30N 57°09' W 002°05'0 0.0
2019-Nov-12 15:00N 57°09' W 002°05'0 0.0
2019-Nov-12 14:00N 57°09' W 002°05'0 0.0
2019-Nov-12 13:30N 57°09' W 002°05'0 0.0
2019-Nov-12 13:00N 57°09' W 002°05'0 0.0
2019-Nov-12 12:00N 57°09' W 002°05'0 0.0
2019-Nov-12 11:30N 57°09' W 002°05'0 0.0
2019-Nov-12 10:00N 57°09' W 002°05'0 0.0
2019-Nov-12 09:00N 57°09' W 002°05'0 0.0
2019-Nov-12 07:30N 57°09' W 002°05'7 4.5
2019-Nov-12 06:00N 57°12' W 001°55'112 3.9
2019-Nov-11 01:00N 59°03' W 002°29'713.3
2019-Nov-11 00:30N 59°00' W 002°41'9 8.8
2019-Nov-10 23:29N 58°60' W 002°58'3 3.5
2019-Nov-10 22:30N 59°01' W 002°52'9122.1
2019-Nov-10 18:22N 57°37' W 001°43'3113.1
2019-Nov-10 16:00N 57°09' W 002°05'0 0.0
2019-Nov-10 09:00N 57°09' W 002°05'  
Track history (hours):
 
Tides and Currents Weather Stations Pressure Air Temp Water Temp Dewpoint Dewpoint Depression Visibility Wind Speed Wind Dir Waves Ship Positions

Hrossey

Operator: NorthLink Orkey & Shetland Ferries Ltd

Last reported at 2019-Nov-20 08:28 UTC. Time now 2019-Nov-20 10:13 UTC.
Position N 57°09' W 002°05'.

Length 125 m; draft 5.4 m.

Type: Ship. MMSI: 235448000.

Date/timePositionNaut miles runAvg speedWind from/ knotsBaromVisibWave heightAir tempDewpointWater temp
2019-Nov-20 08:28N 57°09' W 002°05'0 0.0
2019-Nov-20 07:28N 57°09' W 002°05'1 0.5
2019-Nov-20 06:30N 57°09' W 002°05'2914.5
2019-Nov-20 04:30N 57°33' W 001°36'1 0.0
2019-Nov-18 20:30N 57°32' W 001°38'1518.8
2019-Nov-18 19:42N 57°18' W 001°50'419.3
2019-Nov-18 19:30N 57°16' W 001°54'9 2.6
2019-Nov-18 15:59N 57°09' W 002°05'0 0.0
2019-Nov-18 15:29N 57°09' W 002°05'0 0.0
2019-Nov-18 12:59N 57°09' W 002°05'0 0.0
2019-Nov-18 12:29N 57°09' W 002°05'0 0.0
2019-Nov-18 10:59N 57°09' W 002°05'0 0.0
2019-Nov-18 09:29N 57°09' W 002°05'27 5.7
2019-Nov-18 04:47N 57°31' W 001°37'97 3.5
2019-Nov-17 01:03N 59°04' W 002°28'8813.4
2019-Nov-16 18:27N 57°38' W 001°45'2222.9
2019-Nov-16 17:30N 57°17' W 001°52'1020.9
2019-Nov-16 17:00N 57°09' W 002°04'1 1.0
2019-Nov-16 15:58N 57°09' W 002°05'0 0.0
2019-Nov-16 15:28N 57°09' W 002°05'0 0.0
2019-Nov-16 07:28N 57°09' W 002°05'1 0.6
2019-Nov-16 06:30N 57°09' W 002°04'11514.4
2019-Nov-15 22:30N 58°60' W 002°58'0 0.0
2019-Nov-15 00:00N 58°60' W 002°58'3 2.1
2019-Nov-14 22:30N 59°01' W 002°52'9121.8
2019-Nov-14 18:20N 57°37' W 001°43'823.3
2019-Nov-14 18:00N 57°30' W 001°41'1223.3
2019-Nov-14 17:30N 57°19' W 001°50'13 1.9
2019-Nov-14 10:30N 57°09' W 002°05'1 0.2
2019-Nov-14 06:31N 57°08' W 002°04'11516.4
2019-Nov-13 23:30N 58°60' W 002°58'9 4.7
2019-Nov-13 21:30N 59°00' W 002°40'113 4.1
2019-Nov-12 17:59N 57°09' W 002°05'0 0.0
2019-Nov-12 15:30N 57°09' W 002°05'0 0.0
2019-Nov-12 15:00N 57°09' W 002°05'0 0.0
2019-Nov-12 14:00N 57°09' W 002°05'0 0.0
2019-Nov-12 13:30N 57°09' W 002°05'0 0.0
2019-Nov-12 13:00N 57°09' W 002°05'0 0.0
2019-Nov-12 12:00N 57°09' W 002°05'0 0.0
2019-Nov-12 11:30N 57°09' W 002°05'0 0.0
2019-Nov-12 10:00N 57°09' W 002°05'0 0.0
2019-Nov-12 09:00N 57°09' W 002°05'0 0.0
2019-Nov-12 07:30N 57°09' W 002°05'7 4.5
2019-Nov-12 06:00N 57°12' W 001°55'112 3.9
2019-Nov-11 01:00N 59°03' W 002°29'713.3
2019-Nov-11 00:30N 59°00' W 002°41'9 8.8
2019-Nov-10 23:29N 58°60' W 002°58'3 3.5
2019-Nov-10 22:30N 59°01' W 002°52'9122.1
2019-Nov-10 18:22N 57°37' W 001°43'3113.1
2019-Nov-10 16:00N 57°09' W 002°05'0 0.0
2019-Nov-10 09:00N 57°09' W 002°05'  

Dump ship's entire track history